createdAt,value
2022-12-06T00:02:11.125Z,15.02
2022-12-06T00:04:37.907Z,13.80
2022-12-06T00:07:04.555Z,13.98
2022-12-06T00:12:00.251Z,12.43
2022-12-06T00:14:27.312Z,12.50
2022-12-06T00:16:54.403Z,13.02
2022-12-06T00:19:23.527Z,12.63
2022-12-06T00:21:50.540Z,13.65
2022-12-06T00:24:20.735Z,13.18
2022-12-06T00:26:48.636Z,11.98
2022-12-06T00:29:19.303Z,12.68
2022-12-06T00:31:46.901Z,15.80
2022-12-06T00:34:13.703Z,13.00
2022-12-06T00:36:41.291Z,13.10
2022-12-06T00:39:16.554Z,12.60
2022-12-06T00:41:43.907Z,12.48
2022-12-06T00:44:11.907Z,13.80
2022-12-06T00:46:39.142Z,12.27
2022-12-06T00:49:07.902Z,10.85
2022-12-06T00:51:35.764Z,12.20
2022-12-06T00:54:02.750Z,13.07
2022-12-06T00:56:29.956Z,12.65
2022-12-06T00:58:56.688Z,13.75
2022-12-06T01:01:33.832Z,11.88
2022-12-06T01:04:03.200Z,11.05
2022-12-06T01:06:32.790Z,11.75
2022-12-06T01:09:05.897Z,11.88
2022-12-06T01:11:33.087Z,9.77
2022-12-06T01:13:59.910Z,10.73
2022-12-06T01:16:29.927Z,11.70
2022-12-06T01:19:02.625Z,10.88
2022-12-06T01:21:30.153Z,10.68
2022-12-06T01:23:57.837Z,9.90
2022-12-06T01:26:33.146Z,11.20
2022-12-06T01:29:00.713Z,9.85
2022-12-06T01:31:35.826Z,11.75
2022-12-06T01:34:05.224Z,11.48
2022-12-06T01:36:32.264Z,10.38
2022-12-06T01:39:01.077Z,10.50
2022-12-06T01:41:28.454Z,10.10
2022-12-06T01:43:56.197Z,10.68
2022-12-06T01:46:23.061Z,10.63
2022-12-06T01:48:58.273Z,11.40
2022-12-06T01:51:25.053Z,9.77
2022-12-06T01:53:53.892Z,10.43
2022-12-06T01:56:21.453Z,10.75
2022-12-06T01:58:52.779Z,12.27
2022-12-06T02:01:19.619Z,11.02
2022-12-06T02:03:48.490Z,11.35
2022-12-06T02:06:15.934Z,12.07
2022-12-06T02:08:43.603Z,10.82
2022-12-06T02:11:10.398Z,10.85
2022-12-06T02:13:38.598Z,10.88
2022-12-06T02:16:40.184Z,11.90
2022-12-06T02:19:31.196Z,12.45
2022-12-06T02:22:03.896Z,12.68
2022-12-06T02:25:08.363Z,11.30
2022-12-06T02:27:55.949Z,11.50
2022-12-06T02:30:43.233Z,10.15
2022-12-06T02:33:25.437Z,10.35
2022-12-06T02:36:04.944Z,9.27
2022-12-06T02:38:47.454Z,10.55
2022-12-06T02:41:25.580Z,10.90
2022-12-06T02:44:01.203Z,10.00
2022-12-06T02:46:35.556Z,10.32
2022-12-06T02:49:04.064Z,10.48
2022-12-06T02:51:35.020Z,11.25
2022-12-06T02:54:05.177Z,10.75
2022-12-06T02:56:33.542Z,10.73
2022-12-06T02:59:01.127Z,11.20
2022-12-06T03:01:32.403Z,10.70
2022-12-06T03:04:31.638Z,11.15
2022-12-06T03:07:04.440Z,10.77
2022-12-06T03:09:55.541Z,11.77
2022-12-06T03:12:39.796Z,11.50
2022-12-06T03:15:34.109Z,10.45
2022-12-06T03:18:19.079Z,11.43
2022-12-06T03:21:00.854Z,11.07
2022-12-06T03:23:32.942Z,11.88
2022-12-06T03:26:01.684Z,13.45
2022-12-06T03:28:32.834Z,12.70
2022-12-06T03:31:03.697Z,11.90
2022-12-06T03:33:33.475Z,12.35
2022-12-06T03:36:01.168Z,12.65
2022-12-06T03:38:33.706Z,11.50
2022-12-06T03:41:04.714Z,12.57
2022-12-06T03:43:32.509Z,15.10
2022-12-06T03:46:14.767Z,13.18
2022-12-06T03:49:04.439Z,11.68
2022-12-06T03:51:34.803Z,12.77
2022-12-06T03:54:04.806Z,12.52
2022-12-06T03:56:32.649Z,12.10
2022-12-06T03:58:59.443Z,11.60
2022-12-06T04:01:26.197Z,13.52
2022-12-06T04:03:52.995Z,10.68
2022-12-06T04:06:19.657Z,12.38
2022-12-06T04:08:46.378Z,12.98
2022-12-06T04:11:12.947Z,11.93
2022-12-06T04:13:40.776Z,11.75
2022-12-06T04:16:28.057Z,11.02
2022-12-06T04:18:55.736Z,14.50
2022-12-06T04:21:31.857Z,11.75
2022-12-06T04:23:58.693Z,11.80
2022-12-06T04:26:25.972Z,10.85
2022-12-06T04:29:12.226Z,11.98
2022-12-06T04:31:58.416Z,13.48
2022-12-06T04:34:43.523Z,14.00
2022-12-06T04:37:28.981Z,13.38
2022-12-06T04:39:55.585Z,13.50
2022-12-06T04:42:40.731Z,14.38
2022-12-06T04:45:08.102Z,15.90
2022-12-06T04:47:34.796Z,14.93
2022-12-06T04:50:01.774Z,15.85
2022-12-06T04:52:34.044Z,15.38
2022-12-06T04:55:02.318Z,14.77
2022-12-06T04:57:29.014Z,13.75
2022-12-06T04:59:55.794Z,15.40
2022-12-06T05:02:22.486Z,14.00
2022-12-06T05:04:49.215Z,16.05
2022-12-06T05:07:15.931Z,14.63
2022-12-06T05:09:42.605Z,14.52
2022-12-06T05:12:09.270Z,15.10
2022-12-06T05:14:36.013Z,14.98
2022-12-06T05:17:02.902Z,16.50
2022-12-06T05:19:29.495Z,15.80
2022-12-06T05:21:56.104Z,16.92
2022-12-06T05:24:22.810Z,17.75
2022-12-06T05:26:49.369Z,18.85
2022-12-06T05:29:16.198Z,16.58
2022-12-06T05:31:42.936Z,18.05
2022-12-06T05:34:10.617Z,22.55
2022-12-06T05:36:37.205Z,18.13
2022-12-06T05:39:04.160Z,19.67
2022-12-06T05:41:30.772Z,19.42
2022-12-06T05:43:57.407Z,19.00
2022-12-06T05:46:24.113Z,17.13
2022-12-06T05:48:50.743Z,20.35
2022-12-06T05:51:17.345Z,23.95
2022-12-06T05:53:43.954Z,20.42
2022-12-06T05:56:12.120Z,21.45
2022-12-06T05:58:39.512Z,20.85
2022-12-06T06:01:07.420Z,20.75
2022-12-06T06:03:34.638Z,22.17
2022-12-06T06:06:01.715Z,20.90
2022-12-06T06:08:29.067Z,21.25
2022-12-06T06:10:56.513Z,21.52
2022-12-06T06:13:23.430Z,22.83
2022-12-06T06:15:50.167Z,23.83
2022-12-06T06:18:18.521Z,26.17
2022-12-06T06:20:53.485Z,23.55
2022-12-06T06:23:21.373Z,24.58
2022-12-06T06:25:48.282Z,21.02
2022-12-06T06:28:14.970Z,21.52
2022-12-06T06:30:41.597Z,24.05
2022-12-06T06:33:08.559Z,24.02
2022-12-06T06:35:35.758Z,21.08
2022-12-06T06:38:02.758Z,22.40
2022-12-06T06:40:29.590Z,21.55
2022-12-06T06:42:56.800Z,23.73
2022-12-06T06:45:28.861Z,21.88
2022-12-06T06:47:55.736Z,21.40
2022-12-06T06:50:22.342Z,21.42
2022-12-06T06:52:48.899Z,21.23
2022-12-06T06:55:15.622Z,20.02
2022-12-06T06:57:42.175Z,17.38
2022-12-06T07:00:09.453Z,19.20
2022-12-06T07:02:37.236Z,18.08
2022-12-06T07:05:04.000Z,17.25
2022-12-06T07:07:31.480Z,19.77
2022-12-06T07:09:58.626Z,19.38
2022-12-06T07:12:25.480Z,17.67
2022-12-06T07:14:52.085Z,17.73
2022-12-06T07:17:18.744Z,17.42
2022-12-06T07:19:45.360Z,19.25
2022-12-06T07:22:11.959Z,16.85
2022-12-06T07:24:42.889Z,15.52
2022-12-06T07:27:10.244Z,18.05
2022-12-06T07:29:36.886Z,17.83
2022-12-06T07:32:03.465Z,17.77
2022-12-06T07:34:30.446Z,16.48
2022-12-06T07:36:57.141Z,17.35
2022-12-06T07:39:23.791Z,17.88
2022-12-06T07:42:08.797Z,17.90
2022-12-06T07:44:58.341Z,19.75
2022-12-06T07:47:33.828Z,19.20
2022-12-06T07:50:00.651Z,18.45
2022-12-06T07:52:31.989Z,18.27
2022-12-06T07:54:58.632Z,20.17
2022-12-06T07:57:25.240Z,17.02
2022-12-06T07:59:51.907Z,20.60
2022-12-06T08:02:21.149Z,18.02
2022-12-06T08:04:47.806Z,19.55
2022-12-06T08:07:14.938Z,17.38
2022-12-06T08:09:41.801Z,20.25
2022-12-06T08:12:09.269Z,18.27
2022-12-06T08:14:36.518Z,20.95
2022-12-06T08:17:04.713Z,19.35
2022-12-06T08:19:31.461Z,19.42
2022-12-06T08:21:58.171Z,18.67
2022-12-06T08:24:25.084Z,18.50
2022-12-06T08:26:52.393Z,19.08
2022-12-06T08:29:19.445Z,18.80
2022-12-06T08:31:46.931Z,17.52
2022-12-06T08:34:15.416Z,18.77
2022-12-06T08:36:42.337Z,18.30
2022-12-06T08:39:11.520Z,16.38
2022-12-06T08:41:57.996Z,18.20
2022-12-06T08:44:28.850Z,16.40
2022-12-06T08:46:56.245Z,19.83
2022-12-06T08:49:24.463Z,19.83
2022-12-06T08:51:51.781Z,20.25
2022-12-06T08:54:21.682Z,20.10
2022-12-06T08:59:15.643Z,20.30
2022-12-06T09:01:42.421Z,21.67
2022-12-06T09:04:10.381Z,20.88
2022-12-06T09:06:39.774Z,21.25
2022-12-06T09:09:07.964Z,23.10
2022-12-06T09:11:34.558Z,22.50
2022-12-06T09:14:01.249Z,22.85
2022-12-06T09:16:28.065Z,23.02
2022-12-06T09:18:54.724Z,25.13
2022-12-06T09:21:30.239Z,23.67
2022-12-06T09:23:57.962Z,21.83
2022-12-06T09:26:25.267Z,22.83
2022-12-06T09:28:54.250Z,23.77
2022-12-06T09:31:21.277Z,23.47
2022-12-06T09:33:49.084Z,24.27
2022-12-06T09:36:18.108Z,23.25
2022-12-06T09:38:47.879Z,23.30
2022-12-06T09:41:15.592Z,24.38
2022-12-06T09:43:55.604Z,25.13
2022-12-06T09:46:33.258Z,24.50
2022-12-06T09:49:22.766Z,21.38
2022-12-06T09:52:10.583Z,19.52
2022-12-06T09:55:12.579Z,20.45
2022-12-06T09:57:52.682Z,20.38
2022-12-06T10:00:23.304Z,23.25
2022-12-06T10:03:04.852Z,18.88
2022-12-06T10:06:05.376Z,19.15
2022-12-06T10:08:50.544Z,17.85
2022-12-06T10:11:20.550Z,17.05
2022-12-06T10:17:09.824Z,14.85
2022-12-06T10:19:57.448Z,14.25
2022-12-06T10:22:46.911Z,15.70
2022-12-06T10:25:33.675Z,14.52
2022-12-06T10:28:48.768Z,16.08
2022-12-06T10:31:23.289Z,15.75
2022-12-06T10:33:57.567Z,13.80
2022-12-06T10:36:49.588Z,14.73
2022-12-06T10:39:22.955Z,15.20
2022-12-06T10:42:18.289Z,14.38
2022-12-06T10:44:48.614Z,15.85
2022-12-06T10:47:21.648Z,16.27
2022-12-06T10:50:24.980Z,16.15
2022-12-06T10:52:57.291Z,15.57
2022-12-06T10:55:36.046Z,15.70
2022-12-06T10:58:27.480Z,16.50
2022-12-06T11:00:59.742Z,15.68
2022-12-06T11:03:47.766Z,17.27
2022-12-06T11:06:26.064Z,15.18
2022-12-06T11:08:58.058Z,14.50
2022-12-06T11:11:41.535Z,13.57
2022-12-06T11:14:30.358Z,13.23
2022-12-06T11:17:05.608Z,14.48
2022-12-06T11:19:52.870Z,12.73
2022-12-06T11:23:05.961Z,12.52
2022-12-06T11:25:44.167Z,12.23
2022-12-06T11:28:28.010Z,14.32
2022-12-06T11:30:56.769Z,11.50
2022-12-06T11:33:31.954Z,12.90
2022-12-06T11:36:05.172Z,12.82
2022-12-06T11:38:33.558Z,11.93
2022-12-06T11:41:00.794Z,12.00
2022-12-06T11:43:34.915Z,12.43
2022-12-06T11:46:03.115Z,13.45
2022-12-06T11:48:33.479Z,12.30
2022-12-06T11:51:00.410Z,13.65
2022-12-06T11:53:28.300Z,14.73
2022-12-06T11:56:00.644Z,12.90
2022-12-06T11:58:57.987Z,13.57
2022-12-06T12:01:48.022Z,14.25
2022-12-06T12:04:43.899Z,15.50
2022-12-06T12:07:11.049Z,15.77
2022-12-06T12:09:52.910Z,14.73
2022-12-06T12:12:23.310Z,16.63
2022-12-06T12:15:00.012Z,15.55
2022-12-06T12:17:31.834Z,17.48
2022-12-06T12:20:00.751Z,17.23
2022-12-06T12:22:37.985Z,16.02
2022-12-06T12:25:25.306Z,17.08
2022-12-06T12:28:00.285Z,16.40
2022-12-06T12:30:35.318Z,14.85
2022-12-06T12:33:07.953Z,13.07
2022-12-06T12:35:40.694Z,13.48
2022-12-06T12:38:10.350Z,14.30
2022-12-06T12:40:43.937Z,14.25
2022-12-06T12:43:32.910Z,16.20
2022-12-06T12:46:10.642Z,14.73
2022-12-06T12:48:42.928Z,14.20
2022-12-06T12:51:35.127Z,13.75
2022-12-06T12:54:06.108Z,13.20
2022-12-06T12:56:35.904Z,13.10
2022-12-06T12:59:13.300Z,13.82
2022-12-06T13:01:56.197Z,15.88
2022-12-06T13:04:36.687Z,12.70
2022-12-06T13:07:12.230Z,13.48
2022-12-06T13:09:41.581Z,12.95
2022-12-06T13:12:34.373Z,12.95
2022-12-06T13:15:13.463Z,13.60
2022-12-06T13:17:44.078Z,11.48
2022-12-06T13:20:32.479Z,10.80
2022-12-06T13:23:04.784Z,11.35
2022-12-06T13:25:31.440Z,12.07
2022-12-06T13:28:05.399Z,10.70
2022-12-06T13:30:35.308Z,10.68
2022-12-06T13:33:06.740Z,10.10
2022-12-06T13:36:07.452Z,9.30
2022-12-06T13:38:37.012Z,8.25
2022-12-06T13:41:05.924Z,7.78
2022-12-06T13:43:37.961Z,7.18
2022-12-06T13:46:09.448Z,7.82
2022-12-06T13:51:32.405Z,6.88
2022-12-06T13:54:05.105Z,6.65
2022-12-06T13:56:34.399Z,6.18
2022-12-06T13:59:05.502Z,6.50
2022-12-06T14:01:55.460Z,6.63
2022-12-06T14:07:02.198Z,6.68
2022-12-06T14:09:43.874Z,6.38
2022-12-06T14:12:20.940Z,7.35
2022-12-06T14:15:01.975Z,7.90
2022-12-06T14:20:31.029Z,7.25
2022-12-06T14:22:58.086Z,7.60
2022-12-06T14:25:28.455Z,7.07
2022-12-06T14:28:04.610Z,6.38
2022-12-06T14:30:31.417Z,6.25
2022-12-06T14:32:59.098Z,7.20
2022-12-06T14:35:29.632Z,6.43
2022-12-06T14:38:01.773Z,6.50
2022-12-06T14:41:03.256Z,7.05
2022-12-06T14:43:31.848Z,6.90
2022-12-06T14:46:00.882Z,6.95
2022-12-06T14:48:48.017Z,7.38
2022-12-06T14:51:26.502Z,7.47
2022-12-06T14:53:53.402Z,7.30
2022-12-06T14:56:31.306Z,8.00
2022-12-06T14:59:00.893Z,7.15
2022-12-06T15:01:30.310Z,8.65
2022-12-06T15:04:09.563Z,7.47
2022-12-06T15:06:37.861Z,7.13
2022-12-06T15:09:12.793Z,7.25
2022-12-06T15:12:01.914Z,8.82
2022-12-06T15:14:50.344Z,7.35
2022-12-06T15:17:21.506Z,8.52
2022-12-06T15:19:50.196Z,9.00
2022-12-06T15:22:24.944Z,7.53
2022-12-06T15:24:57.904Z,9.20
2022-12-06T15:27:26.860Z,8.07
2022-12-06T15:29:53.706Z,8.77
2022-12-06T15:32:23.579Z,8.13
2022-12-06T15:40:04.555Z,7.97
2022-12-06T15:42:31.217Z,8.55
2022-12-06T15:44:57.943Z,8.38
2022-12-06T15:47:24.550Z,8.55
2022-12-06T15:49:53.131Z,9.23
2022-12-06T15:52:23.394Z,8.50
2022-12-06T15:54:50.771Z,8.02
2022-12-06T15:57:17.463Z,6.85
2022-12-06T15:59:44.072Z,7.85
2022-12-06T16:02:15.874Z,8.00
2022-12-06T16:04:43.320Z,7.72
2022-12-06T16:07:10.587Z,7.20
2022-12-06T16:09:37.308Z,7.38
2022-12-06T16:12:04.274Z,7.63
2022-12-06T16:14:30.973Z,7.35
2022-12-06T16:16:57.525Z,7.97
2022-12-06T16:19:24.174Z,7.63
2022-12-06T16:21:57.515Z,10.90
2022-12-06T16:24:24.177Z,8.63
2022-12-06T16:26:50.758Z,9.32
2022-12-06T16:29:20.846Z,8.45
2022-12-06T16:31:48.109Z,9.93
2022-12-06T16:34:15.466Z,10.35
2022-12-06T16:37:02.913Z,11.05
2022-12-06T16:39:31.416Z,10.15
2022-12-06T16:41:58.203Z,10.40
2022-12-06T16:44:27.927Z,10.98
2022-12-06T16:46:54.640Z,10.95
2022-12-06T16:52:10.691Z,10.50
2022-12-06T16:54:40.933Z,10.15
2022-12-06T16:57:08.006Z,9.85
2022-12-06T16:59:35.121Z,9.85
2022-12-06T17:02:01.749Z,10.35
2022-12-06T17:04:30.630Z,10.90
2022-12-06T17:06:57.203Z,9.48
2022-12-06T17:09:23.816Z,10.35
2022-12-06T17:12:12.594Z,10.63
2022-12-06T17:14:39.666Z,10.45
2022-12-06T17:17:06.281Z,9.77
2022-12-06T17:19:33.579Z,9.65
2022-12-06T17:22:04.046Z,10.98
2022-12-06T17:24:30.660Z,11.65
2022-12-06T17:26:58.838Z,11.68
2022-12-06T17:29:25.823Z,11.38
2022-12-06T17:31:52.839Z,11.77
2022-12-06T17:34:19.971Z,11.52
2022-12-06T17:36:48.096Z,11.30
2022-12-06T17:39:18.287Z,12.25
2022-12-06T17:42:03.590Z,11.68
2022-12-06T17:44:30.361Z,11.18
2022-12-06T17:46:57.203Z,12.35
2022-12-06T17:49:25.581Z,10.45
2022-12-06T17:51:52.596Z,13.05
2022-12-06T17:54:19.989Z,11.52
2022-12-06T17:56:48.557Z,10.68
2022-12-06T17:59:21.078Z,11.57
2022-12-06T18:04:35.833Z,10.00
2022-12-06T18:07:02.574Z,11.38
2022-12-06T18:09:29.197Z,11.20
2022-12-06T18:11:56.776Z,10.32
2022-12-06T18:14:23.389Z,11.25
2022-12-06T18:16:50.169Z,9.57
2022-12-06T18:19:19.393Z,9.90
2022-12-06T18:21:46.451Z,11.13
2022-12-06T18:24:24.624Z,12.15
2022-12-06T18:26:53.591Z,11.70
2022-12-06T18:29:22.587Z,10.23
2022-12-06T18:31:50.615Z,11.67
2022-12-06T18:34:20.314Z,11.10
2022-12-06T18:36:47.672Z,11.05
2022-12-06T18:39:17.041Z,12.05
2022-12-06T18:41:44.935Z,11.88
2022-12-06T18:44:12.759Z,12.40
2022-12-06T18:46:41.804Z,12.07
2022-12-06T18:49:13.150Z,10.93
2022-12-06T18:51:40.003Z,11.52
2022-12-06T18:54:07.137Z,10.88
2022-12-06T18:56:34.938Z,11.00
2022-12-06T18:59:04.230Z,10.70
2022-12-06T19:01:36.910Z,10.60
2022-12-06T19:04:05.257Z,11.13
2022-12-06T19:06:35.736Z,11.77
2022-12-06T19:09:05.433Z,10.13
2022-12-06T19:11:32.341Z,9.95
2022-12-06T19:14:00.369Z,10.50
2022-12-06T19:16:36.238Z,10.63
2022-12-06T19:19:05.153Z,10.88
2022-12-06T19:21:35.495Z,10.75
2022-12-06T19:24:02.319Z,11.05
2022-12-06T19:26:29.495Z,10.15
2022-12-06T19:28:56.717Z,10.27
2022-12-06T19:31:23.337Z,10.50
2022-12-06T19:33:51.395Z,11.18
2022-12-06T19:36:23.733Z,9.85
2022-12-06T19:39:03.259Z,11.52
2022-12-06T19:41:30.490Z,11.23
2022-12-06T19:44:15.247Z,11.88
2022-12-06T19:46:43.677Z,11.30
2022-12-06T19:49:11.988Z,10.55
2022-12-06T19:51:40.165Z,12.48
2022-12-06T19:54:07.566Z,12.50
2022-12-06T19:56:34.728Z,10.95
2022-12-06T19:59:10.991Z,10.88
2022-12-06T20:01:43.037Z,10.02
2022-12-06T20:04:18.474Z,11.00
2022-12-06T20:06:45.628Z,11.10
2022-12-06T20:09:12.361Z,10.23
2022-12-06T20:12:03.384Z,10.50
2022-12-06T20:14:50.620Z,10.13
2022-12-06T20:17:20.513Z,10.50
2022-12-06T20:22:17.507Z,10.32
2022-12-06T20:24:44.800Z,10.48
2022-12-06T20:27:11.623Z,11.82
2022-12-06T20:29:38.512Z,10.63
2022-12-06T20:32:05.520Z,9.95
2022-12-06T20:34:34.923Z,9.10
2022-12-06T20:37:03.670Z,10.20
2022-12-06T20:39:32.861Z,9.38
2022-12-06T20:41:59.992Z,9.27
2022-12-06T20:44:26.663Z,10.07
2022-12-06T20:46:54.465Z,9.35
2022-12-06T20:49:21.249Z,9.15
2022-12-06T20:51:52.878Z,10.13
2022-12-06T20:54:20.867Z,9.85
2022-12-06T20:56:51.178Z,8.13
2022-12-06T20:59:17.919Z,9.35
2022-12-06T21:01:44.626Z,8.82
2022-12-06T21:04:14.962Z,9.05
2022-12-06T21:06:41.972Z,7.95
2022-12-06T21:09:08.980Z,8.27
2022-12-06T21:11:35.818Z,9.85
2022-12-06T21:14:03.828Z,8.55
2022-12-06T21:16:32.151Z,9.45
2022-12-06T21:19:16.867Z,8.85
2022-12-06T21:21:53.201Z,8.35
2022-12-06T21:24:21.574Z,8.13
2022-12-06T21:26:48.542Z,8.60
2022-12-06T21:29:24.967Z,7.68
2022-12-06T21:31:56.643Z,9.43
2022-12-06T21:34:23.252Z,8.38
2022-12-06T21:36:50.033Z,8.57
2022-12-06T21:39:16.756Z,8.27
2022-12-06T21:41:43.651Z,8.70
2022-12-06T21:44:10.380Z,8.57
2022-12-06T21:46:36.999Z,7.90
2022-12-06T21:49:03.634Z,7.97
2022-12-06T21:51:31.542Z,7.55
2022-12-06T21:53:58.437Z,8.38
2022-12-06T21:56:27.575Z,8.43
2022-12-06T21:58:54.820Z,8.30
2022-12-06T22:01:24.855Z,7.70
2022-12-06T22:03:53.303Z,7.28
2022-12-06T22:06:20.507Z,8.27
2022-12-06T22:08:48.289Z,9.40
2022-12-06T22:11:16.931Z,7.88
2022-12-06T22:13:44.671Z,9.00
2022-12-06T22:16:13.348Z,8.35
2022-12-06T22:18:45.373Z,8.50
2022-12-06T22:21:19.195Z,8.35
2022-12-06T22:23:46.819Z,8.65
2022-12-06T22:26:18.975Z,9.27
2022-12-06T22:28:46.492Z,8.68
2022-12-06T22:31:14.252Z,9.50
2022-12-06T22:33:41.170Z,9.57
2022-12-06T22:36:08.324Z,9.85
2022-12-06T22:38:35.461Z,10.82
2022-12-06T22:41:05.860Z,10.35
2022-12-06T22:43:35.471Z,10.43
2022-12-06T22:46:09.836Z,10.85
2022-12-06T22:48:37.343Z,11.23
2022-12-06T22:51:12.617Z,11.32
2022-12-06T22:53:40.989Z,10.55
2022-12-06T22:56:08.093Z,10.82
2022-12-06T22:58:34.989Z,11.07
2022-12-06T23:01:19.811Z,10.75
2022-12-06T23:03:48.503Z,10.85
2022-12-06T23:06:17.021Z,12.38
2022-12-06T23:08:44.016Z,12.65
2022-12-06T23:11:13.286Z,13.95
2022-12-06T23:13:39.905Z,11.98
2022-12-06T23:16:10.610Z,13.80
2022-12-06T23:18:37.473Z,13.82
2022-12-06T23:21:15.954Z,15.40
2022-12-06T23:23:46.479Z,15.07
2022-12-06T23:26:16.450Z,16.38
2022-12-06T23:28:43.824Z,17.27
2022-12-06T23:31:21.723Z,18.98
2022-12-06T23:33:53.204Z,17.40
2022-12-06T23:36:22.429Z,17.00
2022-12-06T23:38:49.588Z,18.05
2022-12-06T23:41:18.591Z,19.50
2022-12-06T23:43:45.237Z,19.33
2022-12-06T23:46:19.022Z,21.00
2022-12-06T23:48:48.690Z,19.58
2022-12-06T23:51:19.020Z,20.58
2022-12-06T23:53:49.173Z,20.90
2022-12-06T23:56:18.533Z,19.48
2022-12-06T23:58:46.038Z,20.70
